Home > Products > Valid Products > MTR

000
SAUS45 KABQ 271655
MTRTCS
METAR KTCS 271653Z AUTO 05005KT 10SM CLR 22/16 A3028 RMK AO2 SLP177
T02170156 TSNO





000
SAUS45 KABQ 271654
MTRCQC
METAR KCQC 271653Z AUTO 30010KT 10SM CLR 19/12 A3036 RMK AO2 SLP195
T01940122





000
SAUS45 KABQ 271653
MTRABQ
METAR KABQ 271652Z 00000KT 10SM FEW020 FEW035 SCT130 20/13 A3032 RMK
AO2 SLP196 MTNS OBSC NE-E T02000128





000
SAUS45 KABQ 271555
MTRCQC
METAR KCQC 271553Z AUTO 30014KT 10SM CLR 18/12 A3036 RMK AO2 SLP199
T01780122





000
SAUS45 KABQ 271554
MTRTCS
METAR KTCS 271553Z AUTO 03007KT 10SM CLR 21/16 A3028 RMK AO2 SLP176
T02060156 TSNO





000
SAUS45 KABQ 271553
MTRABQ
METAR KABQ 271552Z 00000KT 10SM FEW006 FEW015 SCT035 SCT130 19/13
A3032 RMK AO2 SLP199 MTNS OBSC NE-SE T01940128





000
SAUS45 KABQ 271516
MTRCQC
SPECI KCQC 271515Z AUTO 31011KT 10SM SCT004 16/13 A3035 RMK AO2
T01560128





000
SAUS45 KABQ 271455
MTRTCS
METAR KTCS 271453Z AUTO 03005KT 10SM CLR 19/16 A3026 RMK AO2 SLP174
T01890156 53009 TSNO





000
SAUS45 KABQ 271454
MTRCQC
METAR KCQC 271453Z AUTO 29010KT 10SM BKN004 14/13 A3035 RMK AO2
SLP204 T01440128 51010





000
SAUS45 KABQ 271453
MTRABQ
METAR KABQ 271452Z 00000KT 10SM SCT002 SCT030 BKN130 18/14 A3032 RMK
AO2 SLP200 MTNS OBSC NE-SE T01780139 51009





000
SAUS45 KABQ 271425
MTRCQC
SPECI KCQC 271424Z AUTO 29012KT 3SM BR OVC002 13/13 A3035 RMK AO2
T01330128





000
SAUS45 KABQ 271409
MTRCQC
SPECI KCQC 271408Z AUTO 29009KT 1SM BR OVC003 13/13 A3035 RMK AO2
T01330128





000
SAUS45 KABQ 271404
MTRCQC
SPECI KCQC 271403Z AUTO 29009KT 2SM BR OVC003 13/12 A3035 RMK AO2
T01330122





000
SAUS45 KABQ 271354
MTRTCS
METAR KTCS 271353Z AUTO 36007KT 10SM CLR 17/16 A3025 RMK AO2 SLP170
T01720156 TSNO





000
SAUS45 KABQ 271354
MTRCQC
METAR KCQC 271353Z AUTO 31008KT 6SM BR OVC003 13/13 A3035 RMK AO2
CIG 002V007 SLP200 T01330128





000
SAUS45 KABQ 271353
MTRABQ
METAR KABQ 271352Z 28003KT 10SM FEW003 FEW030 SCT230 17/14 A3031 RMK
AO2 SLP197 MTNS OBSC NE-SE T01670139





000
SAUS45 KABQ 271331
MTRCQC
SPECI KCQC 271330Z AUTO 29008KT 3SM BR OVC003 13/13 A3035 RMK AO2
T01330128





000
SAUS45 KABQ 271325
MTRCQC
SPECI KCQC 271323Z AUTO 28010KT 1 3/4SM BR OVC003 13/12 A3034 RMK
AO2 VIS 1V5 T01280122





000
SAUS45 KABQ 271254
MTRCQC
METAR KCQC 271253Z AUTO 27010KT 9SM OVC004 13/12 A3034 RMK AO2
SLP200 T01280122





000
SAUS45 KABQ 271254
MTRTCS
METAR KTCS 271253Z AUTO 01007KT 10SM FEW110 16/16 A3024 RMK AO2
SLP164 T01610156 TSNO





000
SAUS45 KABQ 271253
MTRABQ
METAR KABQ 271252Z 21003KT 10SM FEW009 FEW030 SCT160 SCT250 16/14
A3030 RMK AO2 SLP192 MTNS OBSC NE-SE T01560139





000
SAUS45 KABQ 271238
MTRCQC
SPECI KCQC 271237Z AUTO 27013KT 10SM BKN003 BKN090 13/12 A3034 RMK
AO2 CIG 002V006 T01280122





000
SAUS45 KABQ 271230
MTRCQC
SPECI KCQC 271229Z AUTO 27011KT 10SM SCT003 SCT090 13/12 A3034 RMK
AO2 T01280122





000
SAUS45 KABQ 271224
MTRABQ
SPECI KABQ 271223Z 18005KT 10SM FEW009 FEW030 SCT120 BKN160 16/14
A3029 RMK AO2 MTNS OBSC NE-SE T01610139





000
SAUS45 KABQ 271158 COR
MTRCQC
METAR KCQC 271153Z AUTO 26007KT 10SM FEW120 13/12 A3032 RMK AO2
SLP188 60018 70027 T01330117 10150 20128 55008





000
SAUS45 KABQ 271156 COR
MTRCQC
METAR KCQC 271153Z AUTO 26007KT 10SM FEW120 13/12 A3032 RMK AO2
SLP188 60018 70027 T01330117 10150 20128 55008





000
SAUS45 KABQ 271155 COR
MTRCQC
METAR KCQC 271153Z AUTO 26007KT 10SM FEW120 13/12 A3032 RMK AO2
SLP188 60018 70027 T01330117 10150 20128 55008





000
SAUS45 KABQ 271154
MTRCQC
METAR KCQC 271153Z AUTO 26007KT 10SM FEW120 13/12 A3032 RMK AO2
SLP188 60018 70027 T01330117 10150 20128 55008





000
SAUS45 KABQ 271154
MTRTCS
METAR KTCS 271153Z AUTO 03006KT 10SM OVC110 17/16 A3023 RMK AO2
SLP160 60043 70043 T01670156 10217 20167 53000 TSNO





000
SAUS45 KABQ 271153
MTRABQ
METAR KABQ 271152Z 09003KT 10SM FEW035 SCT120 BKN180 16/14 A3029 RMK
AO2 SLP185 MTNS OBSC NE-SE 60007 70007 T01610139 10200 20161 51008





000
SAUS45 KABQ 271126
MTRTCS
SPECI KTCS 271125Z AUTO 04008KT 10SM SCT016 OVC110 17/16 A3023 RMK
AO2 T01670156 TSNO





000
SAUS45 KABQ 271110
MTRTCS
SPECI KTCS 271109Z AUTO 01007KT 10SM FEW006 OVC014 17/16 A3022 RMK
AO2 T01720161 TSNO





000
SAUS45 KABQ 271054
MTRTCS
METAR KTCS 271053Z AUTO 03006KT 10SM BKN005 OVC012 17/17 A3023 RMK
AO2 CIG 005V010 SLP159 T01720167 TSNO





000
SAUS45 KABQ 271054
MTRCQC
METAR KCQC 271053Z AUTO 22005KT 10SM FEW080 BKN095 13/12 A3032 RMK
AO2 SLP193 T01280122





000
SAUS45 KABQ 271053
MTRABQ
METAR KABQ 271052Z 31005KT 10SM FEW035 SCT120 BKN180 16/14 A3028 RMK
AO2 SLP181 MTNS OBSC NE-SE T01610139





000
SAUS45 KABQ 271002
MTRTCS
SPECI KTCS 271001Z AUTO 36005KT 10SM BKN003 OVC007 17/17 A3023 RMK
AO2 T01670167 TSNO





000
SAUS45 KABQ 270958 COR
MTRCQC
METAR KCQC 270953Z AUTO 29007KT 10SM SCT070 BKN100 OVC120 13/13
A3034 RMK AO2 RAE53 SLP200 P0009 T01330128





000
SAUS45 KABQ 270956 COR
MTRCQC
METAR KCQC 270953Z AUTO 29007KT 10SM SCT070 BKN100 OVC120 13/13
A3034 RMK AO2 RAE53 SLP200 P0009 T01330128





000
SAUS45 KABQ 270956 COR
MTRCQC
METAR KCQC 270953Z AUTO 29007KT 10SM SCT070 BKN100 OVC120 13/13
A3034 RMK AO2 RAE53 SLP200 P0009 T01330128





000
SAUS45 KABQ 270955 COR
MTRCQC
METAR KCQC 270953Z AUTO 29007KT 10SM SCT070 BKN100 OVC120 13/13
A3034 RMK AO2 RAE53 SLP200 P0009 T01330128





000
SAUS45 KABQ 270955
MTRTCS
METAR KTCS 270953Z AUTO 03004KT 10SM SCT003 BKN007 OVC100 17/16
A3023 RMK AO2 RAE46 SLP160 P0007 T01670161 TSNO





000
SAUS45 KABQ 270955 COR
MTRCQC
METAR KCQC 270953Z AUTO 29007KT 10SM SCT070 BKN100 OVC120 13/13
A3034 RMK AO2 RAE53 SLP200 P0009 T01330128





000
SAUS45 KABQ 270955
MTRTCS
METAR KTCS 270953Z AUTO 03004KT 10SM SCT003 BKN007 OVC100 17/16
A3023 RMK AO2 RAE46 SLP160 P0007 T01670161 TSNO





000
SAUS45 KABQ 270954
MTRCQC
METAR KCQC 270953Z AUTO 29007KT 10SM SCT070 BKN100 OVC120 13/13
A3034 RMK AO2 RAE53 SLP200 P0009 T01330128





000
SAUS45 KABQ 270954
MTRCQC
METAR KCQC 270953Z AUTO 29007KT 10SM SCT070 BKN100 OVC120 13/13
A3034 RMK AO2 RAE53 SLP200 P0009 T01330128





000
SAUS45 KABQ 270953
MTRABQ
METAR KABQ 270952Z 29012KT 10SM FEW008 OVC100 16/14 A3027 RMK AO2
SLP179 MTNS OBSC NE-SE T01610144





000
SAUS45 KABQ 270953
MTRABQ
METAR KABQ 270952Z 29012KT 10SM FEW008 OVC100 16/14 A3027 RMK AO2
SLP179 MTNS OBSC NE-SE T01610144





000
SAUS45 KABQ 270950
MTRTCS
SPECI KTCS 270949Z AUTO 04005KT 10SM BKN007 BKN070 OVC100 17/16
A3023 RMK AO2 RAE46 P0007 TSNO





000
SAUS45 KABQ 270950
MTRTCS
SPECI KTCS 270949Z AUTO 04005KT 10SM BKN007 BKN070 OVC100 17/16
A3023 RMK AO2 RAE46 P0007 TSNO





000
SAUS45 KABQ 270941
MTRTCS
SPECI KTCS 270940Z AUTO 05008KT 10SM -RA SCT007 BKN050 OVC100 17/16
A3023 RMK AO2 P0007 T01670161 TSNO





000
SAUS45 KABQ 270903
MTRCQC
SPECI KCQC 270902Z AUTO 28013KT 8SM RA FEW005 SCT012 OVC080 13/12
A3035 RMK AO2 P0002 T01330122





000
SAUS45 KABQ 270901
MTRTCS
SPECI KTCS 270900Z AUTO 01005KT 4SM +RA BR BKN040 OVC048 17/17 A3025
RMK AO2 P0003 T01720167 TSNO





000
SAUS45 KABQ 270858 COR
MTRCQC
METAR KCQC 270853Z AUTO 27014KT 7SM RA SCT006 BKN012 OVC075 13/12
A3035 RMK AO2 RAB0759 SLP201 P0008 60009 T01330122 51005





000
SAUS45 KABQ 270856 COR
MTRCQC
METAR KCQC 270853Z AUTO 27014KT 7SM RA SCT006 BKN012 OVC075 13/12
A3035 RMK AO2 RAB0759 SLP201 P0008 60009 T01330122 51005





000
SAUS45 KABQ 270855 COR
MTRCQC
METAR KCQC 270853Z AUTO 27014KT 7SM RA SCT006 BKN012 OVC075 13/12
A3035 RMK AO2 RAB0759 SLP201 P0008 60009 T01330122 51005





000
SAUS45 KABQ 270854
MTRTCS
METAR KTCS 270853Z AUTO 04007KT 2 1/2SM +RA BR SCT035 OVC044 17/17
A3024 RMK AO2 VIS 2V4 SLP165 P0035 60036 T01720167 53008 TSNO





000
SAUS45 KABQ 270854
MTRCQC
METAR KCQC 270853Z AUTO 27014KT 7SM RA SCT006 BKN012 OVC075 13/12
A3035 RMK AO2 RAB0759 SLP201 P0008 60009 T01330122 51005





000
SAUS45 KABQ 270853
MTRABQ
METAR KABQ 270852Z 07006KT 10SM FEW008 SCT080 OVC100 17/14 A3026 RMK
AO2 RAB0754E29 SLP172 MTNS OBSC NE-SE P0003 60007 T01670144 58003





000
SAUS45 KABQ 270846
MTRTCS
SPECI KTCS 270845Z AUTO 05008KT 3SM +RA BR FEW031 BKN041 OVC048
17/17 A3024 RMK AO2 P0031 T01720172 TSNO





000
SAUS45 KABQ 270844 COR
MTRCQC
SPECI KCQC 270839Z AUTO 26018G24KT 7SM RA BKN006 BKN012 OVC080 14/13
A3034 RMK AO2 RAB0759 P0005 T01390133





000
SAUS45 KABQ 270842 COR
MTRCQC
SPECI KCQC 270839Z AUTO 26018G24KT 7SM RA BKN006 BKN012 OVC080 14/13
A3034 RMK AO2 RAB0759 P0005 T01390133





000
SAUS45 KABQ 270841 COR
MTRCQC
SPECI KCQC 270839Z AUTO 26018G24KT 7SM RA BKN006 BKN012 OVC080 14/13
A3034 RMK AO2 RAB0759 P0005 T01390133





000
SAUS45 KABQ 270840
MTRCQC
SPECI KCQC 270839Z AUTO 26018G24KT 7SM RA BKN006 BKN012 OVC080 14/13
A3034 RMK AO2 RAB0759 P0005 T01390133





000
SAUS45 KABQ 270839
MTRABQ
SPECI KABQ 270838Z 08005KT 10SM FEW008 BKN080 OVC095 17/14 A3027 RMK
AO2 RAB0754E29 MTNS OBSC NE-SE P0003 T01670144





000
SAUS45 KABQ 270835
MTRTCS
SPECI KTCS 270834Z AUTO 03008KT 1 3/4SM +RA BR SCT028 OVC038 18/17
A3024 RMK AO2 P0022 T01780172 TSNO





000
SAUS45 KABQ 270833
MTRCQC
SPECI KCQC 270832Z AUTO 27016KT 8SM -RA SCT006 BKN011 OVC080 14/13
A3034 RMK AO2 RAB0759 P0003 T01440133





000
SAUS45 KABQ 270754
MTRTCS
METAR KTCS 270753Z AUTO 32010KT 8SM -RA OVC042 19/14 A3023 RMK AO2
RAB33 SLP161 P0001 T01940144 TSNO





000
SAUS45 KABQ 270754
MTRCQC
METAR KCQC 270753Z AUTO 24009KT 10SM FEW046 OVC085 14/13 A3033 RMK
AO2 SLP180 T01440128





000
SAUS45 KABQ 270753
MTRABQ
METAR KABQ 270752Z 00000KT 10SM FEW023 BKN049 OVC075 17/14 A3030 RMK
AO2 RAE49 TSE36 SLP187 MTNS OBSC NE-SE P0004 T01670139





000
SAUS45 KABQ 270743
MTRABQ
SPECI KABQ 270742Z 32003KT 9SM -RA FEW018 BKN045 OVC060 17/14 A3030
RMK AO2 LTG DSNT NE AND E TSE36 MTNS OBSC NE-SE P0004 T01670139





000
SAUS45 KABQ 270658 COR
MTRCQC
METAR KCQC 270653Z AUTO 28003KT 10SM FEW050 BKN080 OVC095 14/12
A3033 RMK AO2 RAB24E50 SLP176 P0001 T01440122 402390111





000
SAUS45 KABQ 270656 COR
MTRCQC
METAR KCQC 270653Z AUTO 28003KT 10SM FEW050 BKN080 OVC095 14/12
A3033 RMK AO2 RAB24E50 SLP176 P0001 T01440122 402390111





000
SAUS45 KABQ 270655 COR
MTRCQC
METAR KCQC 270653Z AUTO 28003KT 10SM FEW050 BKN080 OVC095 14/12
A3033 RMK AO2 RAB24E50 SLP176 P0001 T01440122 402390111





000
SAUS45 KABQ 270654
MTRTCS
METAR KTCS 270653Z AUTO 28006KT 10SM BKN050 BKN060 OVC095 22/16
A3021 RMK AO2 SLP149 T02170156 402780183 TSNO





000
SAUS45 KABQ 270654
MTRCQC
METAR KCQC 270653Z AUTO 28003KT 10SM FEW050 BKN080 OVC095 14/12
A3033 RMK AO2 RAB24E50 SLP176 P0001 T01440122 402390111





000
SAUS45 KABQ 270652
MTRABQ
METAR KABQ 270652Z 35007KT 10SM -TSRA SCT043 BKN050CB OVC095 17/13
A3028 RMK AO2 LTG DSNT NE RAB38 TSE01B25 SLP181 TS OHD MOV NE MTNS
OBSC NE-SE P0000 T01720133 402670172





000
SAUS45 KABQ 270631
MTRABQ
SPECI KABQ 270631Z 35011KT 10SM TS OVC050CB 18/13 A3027 RMK AO2 LTG
DSNT S AND W TSE01B25 TS OHD MOV NE MTNS OBSC NE-SE T01780133





000
SAUS45 KABQ 270607
MTRABQ
SPECI KABQ 270607Z 34016G24KT 10SM VCTS OVC050CB 19/13 A3027 RMK AO2
LTG DSNT NE AND S AND W TSE01 TS S MOV NE MTNS OBSC NE-SE T01940128





000
SAUS45 KABQ 270558 COR
MTRCQC
METAR KCQC 270553Z AUTO 19005KT 10SM SCT080 OVC095 15/13 A3033 RMK
AO2 SLP180 T01500128 10183 20139 50002





000
SAUS45 KABQ 270556 COR
MTRCQC
METAR KCQC 270553Z AUTO 19005KT 10SM SCT080 OVC095 15/13 A3033 RMK
AO2 SLP180 T01500128 10183 20139 50002





000
SAUS45 KABQ 270555 COR
MTRCQC
METAR KCQC 270553Z AUTO 19005KT 10SM SCT080 OVC095 15/13 A3033 RMK
AO2 SLP180 T01500128 10183 20139 50002





000
SAUS45 KABQ 270554
MTRTCS
METAR KTCS 270553Z AUTO 00000KT 10SM SCT060 BKN120 22/16 A3022 RMK
AO2 SLP151 T02170156 10278 20217 51014 TSNO





000
SAUS45 KABQ 270554
MTRCQC
METAR KCQC 270553Z AUTO 19005KT 10SM SCT080 OVC095 15/13 A3033 RMK
AO2 SLP180 T01500128 10183 20139 50002





000
SAUS45 KABQ 270552
MTRABQ
METAR KABQ 270552Z 33012KT 10SM BKN050 BKN090 20/13 A3027 RMK AO2
LTG DSNT ALQDS SLP175 MTN TOPS OBSC NE 60000 T02000128 10250 20200
53012





000
SAUS45 KABQ 270454
MTRTCS
METAR KTCS 270453Z AUTO 15014G18KT 10SM SCT050 BKN065 OVC090 23/15
A3021 RMK AO2 SLP149 T02280150 TSNO





000
SAUS45 KABQ 270454
MTRCQC
METAR KCQC 270453Z AUTO 17004KT 10SM OVC095 15/12 A3034 RMK AO2
SLP184 T01500122





000
SAUS45 KABQ 270452
MTRABQ
METAR KABQ 270452Z 13004KT 10SM BKN090 BKN130 BKN200 21/13 A3025 RMK
AO2 RAE0353 SLP166 P0000 T02060133





000
SAUS45 KABQ 270354
MTRCQC
METAR KCQC 270353Z AUTO 19006KT 10SM CLR 14/12 A3034 RMK AO2 SLP193
T01390122





000
SAUS45 KABQ 270354
MTRTCS
METAR KTCS 270353Z AUTO 36003KT 10SM FEW070 FEW085 BKN110 24/14
A3019 RMK AO2 SLP141 T02390144 TSNO





000
SAUS45 KABQ 270353
MTRABQ
METAR KABQ 270352Z 11006KT 10SM -RA BKN095 BKN120 BKN200 21/13 A3024
RMK AO2 RAB35 SLP167 P0000 T02060133





000
SAUS45 KABQ 270254
MTRCQC
METAR KCQC 270253Z AUTO 17004KT 10SM OVC100 15/13 A3033 RMK AO2
SLP188 T01500128 51008





000
SAUS45 KABQ 270254
MTRTCS
METAR KTCS 270253Z AUTO 31005KT 10SM OVC110 24/13 A3017 RMK AO2
SLP135 T02440128 53014 TSNO





000
SAUS45 KABQ 270253
MTRABQ
METAR KABQ 270252Z 02004KT 10SM FEW050 BKN090 BKN140 21/13 A3023 RMK
AO2 SLP166 MTN TOPS OBSC NE T02060133 53010





000
SAUS45 KABQ 270154
MTRCQC
METAR KCQC 270153Z AUTO 00000KT 10SM OVC100 16/13 A3032 RMK AO2
SLP182 T01610128





000
SAUS45 KABQ 270154
MTRTCS
METAR KTCS 270153Z AUTO 29006KT 10SM FEW110 26/12 A3014 RMK AO2
SLP124 T02560117 TSNO





000
SAUS45 KABQ 270153
MTRABQ
METAR KABQ 270152Z 19008KT 10SM FEW070 SCT120 BKN200 23/11 A3020 RMK
AO2 SLP154 T02280111





000
SAUS45 KABQ 270055
MTRCQC
METAR KCQC 270053Z AUTO 19003KT 10SM FEW090 FEW110 17/12 A3031 RMK
AO2 SLP183 T01670122





000
SAUS45 KABQ 270054
MTRTCS
METAR KTCS 270053Z AUTO 26008KT 10SM FEW075 SCT095 27/12 A3013 RMK
AO2 SLP122 T02720122 TSNO





000
SAUS45 KABQ 270053
MTRABQ
METAR KABQ 270052Z 19006KT 10SM FEW060 SCT110 BKN140 24/12 A3019 RMK
AO2 SLP147 T02390117





000
SAUS45 KABQ 262354
MTRTCS
METAR KTCS 262353Z AUTO VRB06KT 10SM CLR 27/12 A3012 RMK AO2 SLP118
60000 T02720117 10278 20244 56017 TSNO





000
SAUS45 KABQ 262354
MTRCQC
METAR KCQC 262353Z AUTO 21006KT 10SM BKN095 OVC110 17/13 A3030 RMK
AO2 SLP178 60009 T01720128 10239 20156 56008





000
SAUS45 KABQ 262352
MTRABQ
METAR KABQ 262352Z 20009KT 10SM FEW050 SCT100 BKN140 25/12 A3020 RMK
AO2 TSE19 SLP147 VIRGA S MTN TOPS OBSC NE T02500117 10267 20228
56004





000
SAUS45 KABQ 262319
MTRABQ
SPECI KABQ 262319Z 23007KT 10SM FEW050 SCT080 BKN110 BKN150 25/11
A3020 RMK AO2 TSE19 MTN TOPS OBSC NE T02500106





000
SAUS45 KABQ 262254
MTRCQC
METAR KCQC 262253Z AUTO 21010KT 10SM SCT100 16/13 A3030 RMK AO2
RAE27 SLP182 P0001 T01610128





000
SAUS45 KABQ 262254
MTRTCS
METAR KTCS 262253Z AUTO 19003KT 10SM CLR 27/12 A3012 RMK AO2 SLP119
T02720117 TSNO





000
SAUS45 KABQ 262252
MTRABQ
METAR KABQ 262252Z 26009KT 10SM TS SCT080CB BKN110 BKN150 26/11
A3020 RMK AO2 LTG DSNT E TSB47 SLP145 TS E MOV NE SHRA DSNT E
T02610111





000
SAUS45 KABQ 262245
MTRABQ
SPECI KABQ 262245Z 26008KT 10SM VCTS SCT080CB BKN110 BKN150 26/11
A3020 RMK AO2 LTG DSNT E TS SE MOV NE SHRA DSNT E T02610111





000
SAUS45 KABQ 262238
MTRABQ
SPECI KABQ 262238Z 27012KT 10SM SCT080 BKN110 BKN150 26/11 A3020 RMK
AO2 SHRA DSNT E T02560111





000
SAUS45 KABQ 262158 COR
MTRCQC
METAR KCQC 262153Z AUTO 16009KT 6SM -RA BR OVC080 16/14 A3032 RMK
AO2 SLP194 P0008 T01560139





000
SAUS45 KABQ 262156 COR
MTRCQC
METAR KCQC 262153Z AUTO 16009KT 6SM -RA BR OVC080 16/14 A3032 RMK
AO2 SLP194 P0008 T01560139





000
SAUS45 KABQ 262155 COR
MTRCQC
METAR KCQC 262153Z AUTO 16009KT 6SM -RA BR OVC080 16/14 A3032 RMK
AO2 SLP194 P0008 T01560139





000
SAUS45 KABQ 262154
MTRTCS
METAR KTCS 262153Z AUTO VRB05KT 10SM CLR 27/12 A3014 RMK AO2 SLP124
T02720117 TSNO





000
SAUS45 KABQ 262154
MTRCQC
METAR KCQC 262153Z AUTO 16009KT 6SM -RA BR OVC080 16/14 A3032 RMK
AO2 SLP194 P0008 T01560139





000
SAUS45 KABQ 262152
MTRABQ
METAR KABQ 262152Z 22011KT 10SM VCTS BKN080CB BKN150 26/11 A3020 RMK
AO2 LTG DSNT NE AND E SLP144 TS E MOV NE VCSH E-SE SHRA DSNT NW
T02610106





000
SAUS45 KABQ 262145
MTRABQ
SPECI KABQ 262144Z 21010KT 10SM SCT080CB BKN140 26/11 A3020 RMK AO2
LTG DSNT NE AND NW CB E MOV NE VCSH E-SE SHRA DSNT NW T02610106





000
SAUS45 KABQ 262129
MTRABQ
SPECI KABQ 262128Z 22009KT 10SM VCTS SCT070CB SCT100 BKN140 26/11
A3020 RMK AO2 LTG DSNT NE TS SE MOV NE VCSH SE SHRA DSNT W-NW MTNS
OBSC SE T02610106





000
SAUS45 KABQ 262058 COR
MTRCQC
METAR KCQC 262053Z AUTO 22010KT 10SM -RA OVC090 17/14 A3033 RMK AO2
WSHFT 1958 RAB27 SLP196 P0000 60000 T01670139 55007





000
SAUS45 KABQ 262056 COR
MTRCQC
METAR KCQC 262053Z AUTO 22010KT 10SM -RA OVC090 17/14 A3033 RMK AO2
WSHFT 1958 RAB27 SLP196 P0000 60000 T01670139 55007





000
SAUS45 KABQ 262055
MTRCQC
METAR KCQC 262053Z AUTO 22010KT 10SM -RA OVC090 17/14 A3033 RMK AO2
WSHFT 1958 RAB27 SLP196 P0000 60000 T01670139 55007





000
SAUS45 KABQ 262055 COR
MTRCQC
METAR KCQC 262053Z AUTO 22010KT 10SM -RA OVC090 17/14 A3033 RMK AO2
WSHFT 1958 RAB27 SLP196 P0000 60000 T01670139 55007





000
SAUS45 KABQ 262054
MTRTCS
METAR KTCS 262053Z AUTO 32005KT 10SM CLR 27/13 A3018 RMK AO2 RAE05
SLP134 P0000 60000 T02720133 58012 TSNO





000
SAUS45 KABQ 262053
MTRABQ
METAR KABQ 262052Z 24008KT 10SM FEW060 BKN110 BKN140 26/11 A3021 RMK
AO2 LTG DSNT E SLP148 VCSH SW SHRA DSNT E AND S AND W T02610106
56017





000
SAUS45 KABQ 262026 COR
MTRCQC
SPECI KCQC 262018Z AUTO 26010KT 10SM SCT040 BKN065 OVC110 18/13
A3033 RMK AO2 WSHFT 1958 T01830128





000
SAUS45 KABQ 262024 COR
MTRCQC
SPECI KCQC 262018Z AUTO 26010KT 10SM SCT040 BKN065 OVC110 18/13
A3033 RMK AO2 WSHFT 1958 T01830128





000
SAUS45 KABQ 262023 COR
MTRCQC
SPECI KCQC 262018Z AUTO 26010KT 10SM SCT040 BKN065 OVC110 18/13
A3033 RMK AO2 WSHFT 1958 T01830128





000
SAUS45 KABQ 262021 COR
MTRCQC
SPECI KCQC 262018Z AUTO 26010KT 10SM SCT040 BKN065 OVC110 18/13
A3033 RMK AO2 WSHFT 1958 T01830128





000
SAUS45 KABQ 262020 COR
MTRCQC
SPECI KCQC 262018Z AUTO 26010KT 10SM SCT040 BKN065 OVC110 18/13
A3033 RMK AO2 WSHFT 1958 T01830128





000
SAUS45 KABQ 262019
MTRCQC
SPECI KCQC 262018Z AUTO 26010KT 10SM SCT040 BKN065 OVC110 18/13
A3033 RMK AO2 WSHFT 1958 T01830128





000
SAUS45 KABQ 261958 COR
MTRCQC
METAR KCQC 261953Z AUTO 20008KT 10SM FEW040 BKN070 22/11 A3032 RMK
AO2 SLP179 T02170111





000
SAUS45 KABQ 261956 COR
MTRCQC
METAR KCQC 261953Z AUTO 20008KT 10SM FEW040 BKN070 22/11 A3032 RMK
AO2 SLP179 T02170111





000
SAUS45 KABQ 261955 COR
MTRCQC
METAR KCQC 261953Z AUTO 20008KT 10SM FEW040 BKN070 22/11 A3032 RMK
AO2 SLP179 T02170111





000
SAUS45 KABQ 261954
MTRCQC
METAR KCQC 261953Z AUTO 20008KT 10SM FEW040 BKN070 22/11 A3032 RMK
AO2 SLP179 T02170111





000
SAUS45 KABQ 261954
MTRTCS
METAR KTCS 261953Z AUTO 27012KT 10SM -RA SCT060 BKN080 OVC110 25/14
A3020 RMK AO2 RAB41 SLP144 P0000 T02500139 TSNO





000
SAUS45 KABQ 261953
MTRABQ
METAR KABQ 261952Z 25008KT 10SM FEW060 BKN110 BKN130 26/11 A3023 RMK
AO2 SLP154 CB DSNT NE SHRA DSNT SW T02560111





000
SAUS45 KABQ 261854
MTRCQC
METAR KCQC 261853Z AUTO 14009KT 10SM FEW039 BKN065 23/12 A3033 RMK
AO2 SLP176 T02330122





000
SAUS45 KABQ 261854
MTRTCS
METAR KTCS 261853Z AUTO 30007G14KT 10SM FEW120 26/13 A3020 RMK AO2
SLP142 T02560133 TSNO





000
SAUS45 KABQ 261853
MTRABQ
METAR KABQ 261852Z 24010KT 10SM FEW055TCU BKN110 24/11 A3024 RMK AO2
LTG DSNT NE AND E SLP157 TCU E-SE T02440111





000
SAUS45 KABQ 261758 COR
MTRCQC
METAR KCQC 261753Z AUTO 19008KT 10SM FEW031 SCT080 22/12 A3035 RMK
AO2 SLP189 T02170122 10222 20144 50001





000
SAUS45 KABQ 261756 COR
MTRCQC
METAR KCQC 261753Z AUTO 19008KT 10SM FEW031 SCT080 22/12 A3035 RMK
AO2 SLP189 T02170122 10222 20144 50001





000
SAUS45 KABQ 261755 COR
MTRCQC
METAR KCQC 261753Z AUTO 19008KT 10SM FEW031 SCT080 22/12 A3035 RMK
AO2 SLP189 T02170122 10222 20144 50001





000
SAUS45 KABQ 261755
MTRTCS
METAR KTCS 261753Z AUTO 17009KT 10SM BKN100 24/14 A3022 RMK AO2
RAB02E47 SLP151 P0000 60000 T02440139 10244 20183 50005 TSNO





000
SAUS45 KABQ 261754
MTRCQC
METAR KCQC 261753Z AUTO 19008KT 10SM FEW031 SCT080 22/12 A3035 RMK
AO2 SLP189 T02170122 10222 20144 50001





000
SAUS45 KABQ 261753
MTRABQ
METAR KABQ 261752Z 21007KT 10SM FEW050 BKN075 BKN130 23/12 A3027 RMK
AO2 LTG DSNT E AND SE SLP169 MTN TOPS OBSC NE SHRA DSNT ALQDS 60000
T02280117 10233 20189 50004





000
SAUS45 KABQ 261658 COR
MTRCQC
METAR KCQC 261653Z AUTO 15012KT 10SM SCT120 22/12 A3036 RMK AO2
SLP191 T02170117





000
SAUS45 KABQ 261656 COR
MTRCQC
METAR KCQC 261653Z AUTO 15012KT 10SM SCT120 22/12 A3036 RMK AO2
SLP191 T02170117





000
SAUS45 KABQ 261655 COR
MTRCQC
METAR KCQC 261653Z AUTO 15012KT 10SM SCT120 22/12 A3036 RMK AO2
SLP191 T02170117





000
SAUS45 KABQ 261654
MTRCQC
METAR KCQC 261653Z AUTO 15012KT 10SM SCT120 22/12 A3036 RMK AO2
SLP191 T02170117





000
SAUS45 KABQ 261654
MTRTCS
METAR KTCS 261653Z AUTO 22007KT 10SM BKN090 OVC110 23/14 A3023 RMK
AO2 SLP153 T02330139 TSNO





000
SAUS45 KABQ 261653
MTRABQ
METAR KABQ 261652Z 28003KT 10SM FEW050 BKN090 BKN130 23/12 A3027 RMK
AO2 LTG DSNT SE AND S SLP169 VIRGA MTN TOPS OBSC NE SHRA DSNT SE-SW
T02330117





000
SAUS45 KABQ 261554
MTRTCS
METAR KTCS 261553Z AUTO 00000KT 10SM SCT120 23/13 A3021 RMK AO2
SLP150 T02280133 TSNO





000
SAUS45 KABQ 261554
MTRCQC
METAR KCQC 261553Z AUTO 14007KT 10SM BKN065 OVC090 18/11 A3036 RMK
AO2 SLP191 T01830111





000
SAUS45 KABQ 261553
MTRABQ
METAR KABQ 261552Z 00000KT 10SM FEW050 OVC090 22/11 A3026 RMK AO2
RAB17E27 SLP168 VIRGA P0000 T02170111





000
SAUS45 KABQ 261454
MTRTCS
METAR KTCS 261453Z AUTO 00000KT 10SM OVC110 22/13 A3020 RMK AO2
SLP147 T02170128 51012 TSNO





000
SAUS45 KABQ 261454
MTRCQC
METAR KCQC 261453Z AUTO 16006KT 10SM OVC065 17/11 A3035 RMK AO2
SLP193 T01720111 53012





000
SAUS45 KABQ 261453
MTRABQ
METAR KABQ 261452Z 32004KT 10SM BKN110 OVC140 21/11 A3025 RMK AO2
SLP167 T02060111 53010





000
SAUS45 KABQ 261354
MTRCQC
METAR KCQC 261353Z AUTO 26003KT 10SM FEW075 BKN120 17/11 A3033 RMK
AO2 SLP190 T01720111





000
SAUS45 KABQ 261354
MTRTCS
METAR KTCS 261353Z AUTO 29004KT 10SM BKN110 21/13 A3020 RMK AO2
SLP144 T02060128 TSNO





000
SAUS45 KABQ 261353
MTRABQ
METAR KABQ 261352Z 33003KT 10SM BKN110 BKN230 19/11 A3024 RMK AO2
SLP158 T01940111





000
SAUS45 KABQ 261254
MTRTCS
METAR KTCS 261253Z AUTO 30004KT 10SM CLR 19/12 A3018 RMK AO2 SLP139
T01890122 TSNO





000
SAUS45 KABQ 261254
MTRCQC
METAR KCQC 261253Z AUTO 30006KT 10SM BKN080 OVC110 16/10 A3032 RMK
AO2 SLP188 T01560100





000
SAUS45 KABQ 261253
MTRABQ
METAR KABQ 261252Z 01004KT 10SM SCT110 SCT230 19/11 A3022 RMK AO2
SLP150 T01940111





000
SAUS45 KABQ 261155
MTRCQC
METAR KCQC 261153Z AUTO 29007KT 10SM BKN095 OVC110 14/10 A3030 RMK
AO2 SLP175 70001 T01440100 10144 20111 53002 $





000
SAUS45 KABQ 261154
MTRTCS
METAR KTCS 261153Z AUTO 25004KT 10SM CLR 19/12 A3016 RMK AO2 SLP134
T01890122 10239 20183 53008 TSNO





000
SAUS45 KABQ 261153
MTRABQ
METAR KABQ 261152Z 07003KT 10SM BKN120 BKN230 19/11 A3021 RMK AO2
SLP146 T01940106 10233 20183 53004





000
SAUS45 KABQ 261054
MTRCQC
METAR KCQC 261053Z AUTO 27007KT 10SM OVC095 14/10 A3030 RMK AO2
SLP168 T01440100 $





000
SAUS45 KABQ 261054
MTRTCS
METAR KTCS 261053Z AUTO 28005KT 10SM CLR 19/12 A3015 RMK AO2 SLP125
T01940122 TSNO





000
SAUS45 KABQ 261052
MTRABQ
METAR KABQ 261052Z 00000KT 10SM FEW150 SCT240 21/10 A3020 RMK AO2
SLP138 T02060100





000
SAUS45 KABQ 260954
MTRTCS
METAR KTCS 260953Z AUTO 30004KT 10SM CLR 20/13 A3014 RMK AO2 SLP120
T02000128 TSNO





000
SAUS45 KABQ 260954
MTRCQC
METAR KCQC 260953Z AUTO 30006KT 10SM SCT100 13/09 A3029 RMK AO2
SLP157 T01330089 $





000
SAUS45 KABQ 260952
MTRABQ
METAR KABQ 260952Z 00000KT 10SM FEW150 SCT240 21/09 A3021 RMK AO2
SLP139 T02060094





000
SAUS45 KABQ 260854
MTRTCS
METAR KTCS 260853Z AUTO 20004KT 10SM FEW090 22/12 A3013 RMK AO2
SLP117 T02170122 57004 TSNO





000
SAUS45 KABQ 260854
MTRCQC
METAR KCQC 260853Z AUTO 18004KT 10SM BKN100 12/09 A3030 RMK AO2
SLP173 T01170089 51002 $





000
SAUS45 KABQ 260852
MTRABQ
METAR KABQ 260852Z 30003KT 10SM SCT150 BKN240 21/09 A3020 RMK AO2
SLP136 T02060094 50004





000
SAUS45 KABQ 260754
MTRCQC
METAR KCQC 260753Z AUTO 31006KT 10SM CLR 13/09 A3029 RMK AO2 SLP158
T01330094 $





000
SAUS45 KABQ 260754
MTRTCS
METAR KTCS 260753Z AUTO 12005KT 10SM OVC080 22/12 A3014 RMK AO2
SLP118 T02220122 TSNO





000
SAUS45 KABQ 260752
MTRABQ
METAR KABQ 260752Z 29004KT 10SM SCT150 BKN240 21/11 A3020 RMK AO2
SLP138 T02110106





000
SAUS45 KABQ 260654
MTRTCS
METAR KTCS 260653Z AUTO 11005KT 10SM FEW080 OVC100 23/12 A3014 RMK
AO2 SLP118 T02330117 403000183 TSNO





000
SAUS45 KABQ 260654
MTRCQC
METAR KCQC 260653Z AUTO 22008KT 10SM CLR 14/10 A3030 RMK AO2 SLP161
T01390100 402780128 $





000
SAUS45 KABQ 260653
MTRABQ
METAR KABQ 260652Z 19003KT 10SM FEW110 BKN150 23/10 A3019 RMK AO2
SLP134 T02280100 403110167





000
SAUS45 KABQ 260554
MTRCQC
METAR KCQC 260553Z AUTO 32007KT 10SM CLR 14/10 A3029 RMK AO2 SLP157
60001 T01390100 10222 20133 53006 $





000
SAUS45 KABQ 260554
MTRTCS
METAR KTCS 260553Z AUTO 12004KT 10SM OVC090 23/12 A3015 RMK AO2
SLP120 T02330122 10272 20217 51013 TSNO





000
SAUS45 KABQ 260553
MTRABQ
METAR KABQ 260552Z 19004KT 10SM FEW100 BKN150 BKN200 23/10 A3019 RMK
AO2 SLP132 T02280100 10294 20222 51006





000
SAUS45 KABQ 260455
MTRCQC
METAR KCQC 260453Z AUTO 25010KT 10SM CLR 15/10 A3028 RMK AO2 SLP152
T01500100 $





000
SAUS45 KABQ 260454
MTRTCS
METAR KTCS 260453Z AUTO 00000KT 10SM OVC090 24/12 A3014 RMK AO2
SLP120 T02390122 TSNO





000
SAUS45 KABQ 260453
MTRABQ
METAR KABQ 260452Z 14004KT 10SM SCT100 BKN200 23/09 A3018 RMK AO2
SLP132 T02280094





000
SAUS45 KABQ 260355
MTRCQC
METAR KCQC 260353Z AUTO 21011KT 10SM BKN110 17/09 A3027 RMK AO2
SLP148 T01720089 $





000
SAUS45 KABQ 260354
MTRTCS
METAR KTCS 260353Z AUTO 22003KT 10SM CLR 23/12 A3012 RMK AO2 SLP116
T02330117 TSNO





000
SAUS45 KABQ 260353
MTRABQ
METAR KABQ 260352Z 12005KT 10SM FEW090 SCT200 23/09 A3018 RMK AO2
SLP132 T02330094





000
SAUS45 KABQ 260343
MTRABQ
SPECI KABQ 260342Z 12008KT 10SM FEW090 SCT200 23/09 A3017 RMK AO2
T02330094





000
SAUS45 KABQ 260320
MTRABQ
SPECI KABQ 260319Z 12012KT 10SM VCTS FEW090CB SCT200 23/10 A3016 RMK
AO2 LTG DSNT SW AND W TS W MOV E T02280100





000
SAUS45 KABQ 260258 COR
MTRCQC
METAR KCQC 260253Z AUTO 21010KT 10SM FEW120 16/09 A3027 RMK AO2 PK
WND 19029/0207 RAE01 SLP158 P0000 60001 T01560094 51009 $





000
SAUS45 KABQ 260256 COR
MTRCQC
METAR KCQC 260253Z AUTO 21010KT 10SM FEW120 16/09 A3027 RMK AO2 PK
WND 19029/0207 RAE01 SLP158 P0000 60001 T01560094 51009 $





000
SAUS45 KABQ 260255
MTRCQC
METAR KCQC 260253Z AUTO 21010KT 10SM FEW120 16/09 A3027 RMK AO2 PK
WND 19029/0207 RAE01 SLP158 P0000 60001 T01560094 51009 $





000
SAUS45 KABQ 260255 COR
MTRCQC
METAR KCQC 260253Z AUTO 21010KT 10SM FEW120 16/09 A3027 RMK AO2 PK
WND 19029/0207 RAE01 SLP158 P0000 60001 T01560094 51009 $





000
SAUS45 KABQ 260254
MTRTCS
METAR KTCS 260253Z AUTO 19004KT 10SM CLR 25/12 A3011 RMK AO2 SLP111
T02500117 53012 TSNO





000
SAUS45 KABQ 260253
MTRABQ
METAR KABQ 260252Z 13013KT 10SM SCT090 SCT140 BKN250 23/11 A3017 RMK
AO2 WSHFT 0156 SLP133 T02330106 53022





000
SAUS45 KABQ 260217
MTRABQ
SPECI KABQ 260216Z 13015KT 10SM FEW100 SCT140 BKN250 24/11 A3015 RMK
AO2 WSHFT 0156 LTG DSNT SE T02440106





000
SAUS45 KABQ 260201 COR
MTRCQC
METAR KCQC 260153Z AUTO 22019KT 10SM -RA OVC095 15/11 A3026 RMK AO2
PK WND 17036/0106 SLP163 P0001 T01500111 $





000
SAUS45 KABQ 260159 COR
MTRCQC
METAR KCQC 260153Z AUTO 22019KT 10SM -RA OVC095 15/11 A3026 RMK AO2
PK WND 17036/0106 SLP163 P0001 T01500111 $





000
SAUS45 KABQ 260158 COR
MTRCQC
METAR KCQC 260153Z AUTO 22019KT 10SM -RA OVC095 15/11 A3026 RMK AO2
PK WND 17036/0106 SLP163 P0001 T01500111 $





000
SAUS45 KABQ 260156 COR
MTRCQC
METAR KCQC 260153Z AUTO 22019KT 10SM -RA OVC095 15/11 A3026 RMK AO2
PK WND 17036/0106 SLP163 P0001 T01500111 $





000
SAUS45 KABQ 260155 COR
MTRCQC
METAR KCQC 260153Z AUTO 22019KT 10SM -RA OVC095 15/11 A3026 RMK AO2
PK WND 17036/0106 SLP163 P0001 T01500111 $





000
SAUS45 KABQ 260155
MTRCQC
METAR KCQC 260153Z AUTO 22019KT 10SM -RA OVC095 15/11 A3026 RMK AO2
PK WND 17036/0106 SLP163 P0001 T01500111 $





000
SAUS45 KABQ 260154
MTRTCS
METAR KTCS 260153Z AUTO 24004KT 10SM CLR 26/12 A3009 RMK AO2 SLP108
T02560117 TSNO





000
SAUS45 KABQ 260153
MTRABQ
METAR KABQ 260152Z 19009KT 10SM FEW100 SCT140 BKN250 27/09 A3014 RMK
AO2 LTG DSNT SE SLP122 VCSH SE T02670094





000
SAUS45 KABQ 260058 COR
MTRCQC
METAR KCQC 260053Z AUTO 21022G36KT 7SM -RA FEW029 BKN070 OVC095
16/10 A3025 RMK AO2 PK WND 24038/0046 RAB01 SLP166 P0000 T01560100 $





000
SAUS45 KABQ 260056 COR
MTRCQC
METAR KCQC 260053Z AUTO 21022G36KT 7SM -RA FEW029 BKN070 OVC095
16/10 A3025 RMK AO2 PK WND 24038/0046 RAB01 SLP166 P0000 T01560100 $





000
SAUS45 KABQ 260055 COR
MTRCQC
METAR KCQC 260053Z AUTO 21022G36KT 7SM -RA FEW029 BKN070 OVC095
16/10 A3025 RMK AO2 PK WND 24038/0046 RAB01 SLP166 P0000 T01560100 $





000
SAUS45 KABQ 260055
MTRCQC
METAR KCQC 260053Z AUTO 21022G36KT 7SM -RA FEW029 BKN070 OVC095
16/10 A3025 RMK AO2 PK WND 24038/0046 RAB01 SLP166 P0000 T01560100 $





000
SAUS45 KABQ 260054
MTRTCS
METAR KTCS 260053Z AUTO 26008KT 10SM CLR 27/12 A3007 RMK AO2 SLP100
T02720117 TSNO





000
SAUS45 KABQ 260053
MTRABQ
METAR KABQ 260052Z 21013KT 10SM FEW100 SCT150 BKN250 28/10 A3010 RMK
AO2 LTG DSNT E SLP111 T02780100





000
SAUS45 KABQ 252358 COR
MTRCQC
METAR KCQC 252353Z AUTO 24018KT 10SM BKN100 OVC120 19/09 A3023 RMK
AO2 PK WND 21029/2300 SLP150 60000 T01940094 10272 20194 55004 $





000
SAUS45 KABQ 252356 COR
MTRCQC
METAR KCQC 252353Z AUTO 24018KT 10SM BKN100 OVC120 19/09 A3023 RMK
AO2 PK WND 21029/2300 SLP150 60000 T01940094 10272 20194 55004 $





000
SAUS45 KABQ 252355 COR
MTRCQC
METAR KCQC 252353Z AUTO 24018KT 10SM BKN100 OVC120 19/09 A3023 RMK
AO2 PK WND 21029/2300 SLP150 60000 T01940094 10272 20194 55004 $





000
SAUS45 KABQ 252354
MTRTCS
METAR KTCS 252353Z AUTO 27012KT 10SM CLR 27/12 A3007 RMK AO2 WSHFT
2241 SLP097 60000 T02670122 10300 20261 56013 TSNO





000
SAUS45 KABQ 252354
MTRCQC
METAR KCQC 252353Z AUTO 24018KT 10SM BKN100 OVC120 19/09 A3023 RMK
AO2 PK WND 21029/2300 SLP150 60000 T01940094 10272 20194 55004 $





000
SAUS45 KABQ 252352
MTRABQ
METAR KABQ 252352Z 19014KT 10SM SCT100 SCT150 BKN250 29/08 A3009 RMK
AO2 LTG DSNT SE AND S SLP104 T02940083 10311 20278 56012





000
SAUS45 KABQ 252301
MTRTCS
SPECI KTCS 252301Z AUTO 27014G23KT 10SM FEW080 27/12 A3008 RMK AO2
WSHFT 2241 T02670117 TSNO





000
SAUS45 KABQ 252254
MTRTCS
METAR KTCS 252253Z AUTO 26016G21KT 10SM FEW080 28/11 A3007 RMK AO2
SLP100 T02780111 TSNO





000
SAUS45 KABQ 252254
MTRCQC
METAR KCQC 252253Z AUTO 20015KT 10SM FEW095 22/09 A3022 RMK AO2
SLP134 T02220094 $





000
SAUS45 KABQ 252252
MTRABQ
METAR KABQ 252252Z 21007KT 10SM SCT100 SCT150 BKN250 30/07 A3010 RMK
AO2 LTG DSNT E AND SE SLP104 T03000072





000
SAUS45 KABQ 252154
MTRCQC
METAR KCQC 252153Z AUTO 23003KT 10SM CLR 26/03 A3022 RMK AO2 RAE02
SLP127 P0000 T02610033 $





000
SAUS45 KABQ 252154
MTRTCS
METAR KTCS 252153Z AUTO VRB04KT 10SM CLR 29/09 A3008 RMK AO2
RAB05E16 SLP098 P0000 T02940089 TSNO





000
SAUS45 KABQ 252152
MTRABQ
METAR KABQ 252152Z 23005KT 10SM SCT090 SCT250 31/08 A3011 RMK AO2
SLP103 T03060078





000
SAUS45 KABQ 252103 COR
MTRCQC
METAR KCQC 252053Z AUTO 29013KT 10SM -RA FEW080 BKN100 OVC120 23/07
A3025 RMK AO2 PK WND 26026/2038 RAB39 SLP146 P0000 60000 T02280067 $





000
SAUS45 KABQ 252102 COR
MTRCQC
METAR KCQC 252053Z AUTO 29013KT 10SM -RA FEW080 BKN100 OVC120 23/07
A3025 RMK AO2 PK WND 26026/2038 RAB39 SLP146 P0000 60000 T02280067 $





000
SAUS45 KABQ 252101 COR
MTRCQC
METAR KCQC 252053Z AUTO 29013KT 10SM -RA FEW080 BKN100 OVC120 23/07
A3025 RMK AO2 PK WND 26026/2038 RAB39 SLP146 P0000 60000 T02280067 $





000
SAUS45 KABQ 252059 COR
MTRCQC
METAR KCQC 252053Z AUTO 29013KT 10SM -RA FEW080 BKN100 OVC120 23/07
A3025 RMK AO2 PK WND 26026/2038 RAB39 SLP146 P0000 60000 T02280067 $





000
SAUS45 KABQ 252058 COR
MTRCQC
METAR KCQC 252053Z AUTO 29013KT 10SM -RA FEW080 BKN100 OVC120 23/07
A3025 RMK AO2 PK WND 26026/2038 RAB39 SLP146 P0000 60000 T02280067 $





000
SAUS45 KABQ 252056 COR
MTRCQC
METAR KCQC 252053Z AUTO 29013KT 10SM -RA FEW080 BKN100 OVC120 23/07
A3025 RMK AO2 PK WND 26026/2038 RAB39 SLP146 P0000 60000 T02280067 $





000
SAUS45 KABQ 252055 COR
MTRCQC
METAR KCQC 252053Z AUTO 29013KT 10SM -RA FEW080 BKN100 OVC120 23/07
A3025 RMK AO2 PK WND 26026/2038 RAB39 SLP146 P0000 60000 T02280067 $





000
SAUS45 KABQ 252054
MTRTCS
METAR KTCS 252053Z AUTO 15014KT 10SM SCT070 BKN100 28/10 A3011 RMK
AO2 SLP108 T02830100 58020 TSNO





000
SAUS45 KABQ 252054
MTRCQC
METAR KCQC 252053Z AUTO 29013KT 10SM -RA FEW080 BKN100 OVC120 23/07
A3025 RMK AO2 PK WND 26026/2038 RAB39 SLP146 P0000 60000 T02280067 $





000
SAUS45 KABQ 252053
MTRABQ
METAR KABQ 252052Z 30007KT 250V330 10SM SCT100 SCT120 SCT250 31/08
A3013 RMK AO2 SLP108 T03060083 58016





000
SAUS45 KABQ 251954
MTRTCS
METAR KTCS 251953Z AUTO VRB06KT 10SM FEW080 29/12 A3013 RMK AO2
SLP115 T02890117 TSNO





000
SAUS45 KABQ 251954
MTRCQC
METAR KCQC 251953Z AUTO 27008KT 10SM 26/06 A3025 RMK AO2 SLP139
T02610056 $





000
SAUS45 KABQ 251953
MTRABQ
METAR KABQ 251952Z 00000KT 10SM SCT090 SCT250 29/08 A3015 RMK AO2
SLP120 SHRA DSNT E T02940078





000
SAUS45 KABQ 251854
MTRTCS
METAR KTCS 251853Z AUTO 18006G15KT 10SM CLR 28/12 A3016 RMK AO2
SLP123 T02780122 TSNO





000
SAUS45 KABQ 251853
MTRABQ
METAR KABQ 251852Z 14004KT 10SM FEW090 SCT250 28/07 A3017 RMK AO2
LTG DSNT SE SLP123 CB DSNT NW T02830072





000
SAUS45 KABQ 251758 COR
MTRCQC
METAR KCQC 251753Z AUTO 18005G16KT 10SM CLR 26/05 A3028 RMK AO2
SLP147 T02560050 10261 20139 50003





000
SAUS45 KABQ 251756 COR
MTRCQC
METAR KCQC 251753Z AUTO 18005G16KT 10SM CLR 26/05 A3028 RMK AO2
SLP147 T02560050 10261 20139 50003





000
SAUS45 KABQ 251755 COR
MTRCQC
METAR KCQC 251753Z AUTO 18005G16KT 10SM CLR 26/05 A3028 RMK AO2
SLP147 T02560050 10261 20139 50003





000
SAUS45 KABQ 251754
MTRTCS
METAR KTCS 251753Z AUTO 21011KT 10SM CLR 27/12 A3018 RMK AO2 SLP128
T02720122 10272 20189 50003 TSNO





000
SAUS45 KABQ 251754
MTRCQC
METAR KCQC 251753Z AUTO 18005G16KT 10SM CLR 26/05 A3028 RMK AO2
SLP147 T02560050 10261 20139 50003





000
SAUS45 KABQ 251753
MTRABQ
METAR KABQ 251752Z 26005KT 10SM FEW090 FEW120 FEW250 28/08 A3019 RMK
AO2 SLP129 CB DSNT SE TCU DSNT NE-E T02780078 10283 20167 58002





000
SAUS45 KABQ 251654
MTRCQC
METAR KCQC 251653Z AUTO 31009KT 10SM CLR 26/07 A3028 RMK AO2 SLP147
T02560072





000
SAUS45 KABQ 251654
MTRTCS
METAR KTCS 251653Z AUTO 19011KT 10SM CLR 26/12 A3018 RMK AO2 SLP129
T02560122 TSNO





000
SAUS45 KABQ 251653
MTRABQ
METAR KABQ 251652Z 35007KT 310V010 10SM FEW080 FEW100 FEW250 27/08
A3020 RMK AO2 SLP137 ACC S-SW T02670078





000
SAUS45 KABQ 251554
MTRCQC
METAR KCQC 251553Z AUTO 31011KT 10SM CLR 23/07 A3027 RMK AO2 SLP148
T02330072





000
SAUS45 KABQ 251554
MTRTCS
METAR KTCS 251553Z AUTO 19012KT 10SM SCT110 24/13 A3017 RMK AO2
SLP128 T02440128 TSNO





000
SAUS45 KABQ 251552
MTRABQ
METAR KABQ 251552Z 35007KT 10SM FEW100 FEW250 25/08 A3019 RMK AO2
SLP135 ACC S T02500078





000
SAUS45 KABQ 251454
MTRCQC
METAR KCQC 251453Z AUTO 30012KT 10SM CLR 21/07 A3026 RMK AO2 SLP148
T02060072 51013





000
SAUS45 KABQ 251454
MTRTCS
METAR KTCS 251453Z AUTO 16006KT 10SM BKN080 BKN100 BKN110 22/10
A3017 RMK AO2 SLP126 T02220100 53025 TSNO





000
SAUS45 KABQ 251452
MTRABQ
METAR KABQ 251452Z 00000KT 10SM FEW110 FEW250 23/08 A3019 RMK AO2
SLP140 T02280083 51014





000
SAUS45 KABQ 251358 COR
MTRCQC
METAR KCQC 251353Z AUTO 29010KT 10SM CLR 18/08 A3026 RMK AO2 SLP146
T01780083





000
SAUS45 KABQ 251356 COR
MTRCQC
METAR KCQC 251353Z AUTO 29010KT 10SM CLR 18/08 A3026 RMK AO2 SLP146
T01780083





000
SAUS45 KABQ 251355 COR
MTRCQC
METAR KCQC 251353Z AUTO 29010KT 10SM CLR 18/08 A3026 RMK AO2 SLP146
T01780083





000
SAUS45 KABQ 251354
MTRTCS
METAR KTCS 251353Z AUTO 25005KT 10SM CLR 21/08 A3013 RMK AO2 SLP113
T02110083 TSNO





000
SAUS45 KABQ 251354
MTRCQC
METAR KCQC 251353Z AUTO 29010KT 10SM CLR 18/08 A3026 RMK AO2 SLP146
T01780083





000
SAUS45 KABQ 251352
MTRABQ
METAR KABQ 251352Z 08004KT 10SM FEW110 FEW200 20/09 A3018 RMK AO2
SLP137 T02000089





000
SAUS45 KABQ 251254
MTRTCS
METAR KTCS 251253Z AUTO 01005KT 10SM CLR 19/08 A3010 RMK AO2 SLP103
T01890083 TSNO





000
SAUS45 KABQ 251254
MTRCQC
METAR KCQC 251253Z AUTO 24009KT 10SM CLR 14/08 A3024 RMK AO2 SLP142
T01390083





000
SAUS45 KABQ 251252
MTRABQ
METAR KABQ 251252Z 12007KT 10SM FEW110 FEW200 17/08 A3017 RMK AO2
SLP134 T01720083





000
SAUS45 KABQ 251154
MTRTCS
METAR KTCS 251153Z AUTO 28008KT 10SM CLR 21/08 A3008 RMK AO2 SLP092
T02060078 10250 20183 53001 TSNO





000
SAUS45 KABQ 251154
MTRCQC
METAR KCQC 251153Z AUTO 22009KT 10SM CLR 14/08 A3022 RMK AO2 SLP129
T01440083 10172 20144 53000





000
SAUS45 KABQ 251152
MTRABQ
METAR KABQ 251152Z 00000KT 10SM CLR 18/09 A3014 RMK AO2 SLP121
T01830089 10239 20178 53010





000
SAUS45 KABQ 251054
MTRTCS
METAR KTCS 251053Z AUTO 29004KT 10SM CLR 19/09 A3007 RMK AO2 SLP091
T01940094 TSNO





000
SAUS45 KABQ 251054
MTRCQC
METAR KCQC 251053Z AUTO 22012KT 10SM CLR 16/08 A3021 RMK AO2 SLP122
T01610083





000
SAUS45 KABQ 251052
MTRABQ
METAR KABQ 251052Z 18003KT 10SM CLR 19/08 A3012 RMK AO2 SLP111
T01890078





000
SAUS45 KABQ 250954
MTRTCS
METAR KTCS 250953Z AUTO 29005KT 10SM CLR 20/08 A3007 RMK AO2 SLP091
T02000083 TSNO





000
SAUS45 KABQ 250954
MTRCQC
METAR KCQC 250953Z AUTO 23013KT 10SM CLR 17/07 A3021 RMK AO2 SLP123
T01670067





000
SAUS45 KABQ 250952
MTRABQ
METAR KABQ 250952Z 18005KT 10SM FEW110 20/08 A3011 RMK AO2 SLP108
T02000078





000
SAUS45 KABQ 250854
MTRTCS
METAR KTCS 250853Z AUTO 31003KT 10SM CLR 22/09 A3008 RMK AO2 SLP091
T02170089 58001 TSNO





000
SAUS45 KABQ 250854
MTRCQC
METAR KCQC 250853Z AUTO 21012KT 10SM CLR 16/05 A3022 RMK AO2 SLP128
T01560050 56005





000
SAUS45 KABQ 250852
MTRABQ
METAR KABQ 250852Z 16009KT 10SM FEW110 22/07 A3011 RMK AO2 SLP104
T02220067 53001





000
SAUS45 KABQ 250754
MTRCQC
METAR KCQC 250753Z AUTO 21011KT 10SM CLR 16/04 A3022 RMK AO2 SLP128
T01560044





000
SAUS45 KABQ 250754
MTRTCS
METAR KTCS 250753Z AUTO 25005KT 10SM CLR 22/11 A3008 RMK AO2 SLP091
T02220106 TSNO





000
SAUS45 KABQ 250752
MTRABQ
METAR KABQ 250752Z 13007KT 10SM FEW110 21/06 A3010 RMK AO2 SLP102
T02110061





000
SAUS45 KABQ 250654
MTRCQC
METAR KCQC 250653Z AUTO 23008KT 10SM CLR 16/04 A3023 RMK AO2 SLP133
T01560039 402780117





000
SAUS45 KABQ 250654
MTRTCS
METAR KTCS 250653Z AUTO 27006KT 10SM CLR 23/11 A3008 RMK AO2 SLP095
T02280106 403330167 TSNO





000
SAUS45 KABQ 250652
MTRABQ
METAR KABQ 250652Z 10006KT 10SM SCT110 24/06 A3010 RMK AO2 SLP102
T02390056 403110150





000
SAUS45 KABQ 250554
MTRTCS
METAR KTCS 250553Z AUTO 25005KT 10SM FEW100 24/09 A3008 RMK AO2
SLP095 T02440094 10322 20244 51018 TSNO





000
SAUS45 KABQ 250554
MTRCQC
METAR KCQC 250553Z AUTO 23008KT 10SM CLR 17/03 A3024 RMK AO2 SLP135
T01670033 10267 20161 51007





000
SAUS45 KABQ 250552
MTRABQ
METAR KABQ 250552Z 10006KT 10SM FEW140 24/05 A3011 RMK AO2 SLP105
T02390050 10306 20228 51010





000
SAUS45 KABQ 250454
MTRCQC
METAR KCQC 250453Z AUTO 22009KT 10SM CLR 17/03 A3024 RMK AO2 SLP135
T01720033





000
SAUS45 KABQ 250454
MTRTCS
METAR KTCS 250453Z AUTO 21008KT 10SM CLR 27/09 A3007 RMK AO2 SLP087
T02670094 TSNO





000
SAUS45 KABQ 250452
MTRABQ
METAR KABQ 250452Z 11005KT 10SM CLR 23/06 A3011 RMK AO2 SLP112
T02280061





000
SAUS45 KABQ 250354
MTRTCS
METAR KTCS 250353Z AUTO 20003KT 10SM CLR 27/07 A3005 RMK AO2 SLP085
T02670072 TSNO





000
SAUS45 KABQ 250354
MTRCQC
METAR KCQC 250353Z AUTO 21008KT 10SM CLR 18/04 A3023 RMK AO2 SLP137
T01780044





000
SAUS45 KABQ 250353
MTRABQ
METAR KABQ 250352Z 10006KT 10SM CLR 24/06 A3009 RMK AO2 SLP107
T02440056





000
SAUS45 KABQ 250255
MTRTCS
METAR KTCS 250253Z AUTO 21007KT 10SM CLR 29/07 A3002 RMK AO2 SLP076
T02890067 53009 TSNO





000
SAUS45 KABQ 250254
MTRCQC
METAR KCQC 250253Z AUTO 25006KT 10SM FEW085 19/05 A3021 RMK AO2
SLP130 T01940050 53012





000
SAUS45 KABQ 250253
MTRABQ
METAR KABQ 250252Z 11006KT 10SM FEW080 25/06 A3007 RMK AO2 SLP103
T02500061 53004





000
SAUS45 KABQ 250154
MTRCQC
METAR KCQC 250153Z AUTO 21014G17KT 10SM FEW080 22/06 A3019 RMK AO2
SLP124 T02170056





000
SAUS45 KABQ 250154
MTRTCS
METAR KTCS 250153Z AUTO 18007KT 10SM CLR 30/07 A3000 RMK AO2 SLP068
T03000067 TSNO





000
SAUS45 KABQ 250153
MTRABQ
METAR KABQ 250152Z 12008KT 10SM FEW080 28/07 A3006 RMK AO2 SLP096
T02780067





000
SAUS45 KABQ 250054
MTRTCS
METAR KTCS 250053Z AUTO 18011KT 10SM CLR 32/07 A2999 RMK AO2 SLP066
T03170067 TSNO





000
SAUS45 KABQ 250054
MTRCQC
METAR KCQC 250053Z AUTO 24009KT 10SM CLR 24/06 A3017 RMK AO2 SLP119
T02440056





000
SAUS45 KABQ 250053
MTRABQ
METAR KABQ 250052Z VRB03KT 10SM FEW080 29/04 A3005 RMK AO2 SLP093
T02940044





000
SAUS45 KABQ 242358 COR
MTRCQC
METAR KCQC 242353Z AUTO 25013G18KT 10SM CLR 27/04 A3017 RMK AO2
SLP117 T02670039 10278 20233 56009





000
SAUS45 KABQ 242356 COR
MTRCQC
METAR KCQC 242353Z AUTO 25013G18KT 10SM CLR 27/04 A3017 RMK AO2
SLP117 T02670039 10278 20233 56009





000
SAUS45 KABQ 242355 COR
MTRCQC
METAR KCQC 242353Z AUTO 25013G18KT 10SM CLR 27/04 A3017 RMK AO2
SLP117 T02670039 10278 20233 56009





000
SAUS45 KABQ 242354
MTRCQC
METAR KCQC 242353Z AUTO 25013G18KT 10SM CLR 27/04 A3017 RMK AO2
SLP117 T02670039 10278 20233 56009





000
SAUS45 KABQ 242354
MTRTCS
METAR KTCS 242353Z AUTO 18011KT 10SM CLR 32/06 A2999 RMK AO2 SLP064
T03220061 10333 20278 56014 TSNO





000
SAUS45 KABQ 242353
MTRABQ
METAR KABQ 242352Z 07003KT 10SM FEW080 31/04 A3006 RMK AO2 SLP092
T03060044 10311 20261 56013





000
SAUS45 KABQ 242254
MTRTCS
METAR KTCS 242253Z AUTO 18010G19KT 10SM CLR 33/06 A2999 RMK AO2
SLP061 T03280061 TSNO





000
SAUS45 KABQ 242254
MTRCQC
METAR KCQC 242253Z AUTO 23012KT 10SM BKN085 26/04 A3017 RMK AO2
SLP119 T02610039





000
SAUS45 KABQ 242253
MTRABQ
METAR KABQ 242252Z VRB03KT 10SM FEW080 31/06 A3007 RMK AO2 SLP094
T03060056





000
SAUS45 KABQ 242154
MTRCQC
METAR KCQC 242153Z AUTO 28009KT 10SM CLR 26/05 A3018 RMK AO2 SLP121
T02610050





000
SAUS45 KABQ 242154
MTRTCS
METAR KTCS 242153Z AUTO VRB04KT 10SM CLR 32/08 A3001 RMK AO2 SLP073
T03170078 TSNO





000
SAUS45 KABQ 242153
MTRABQ
METAR KABQ 242152Z 00000KT 10SM SCT080 30/06 A3008 RMK AO2 SLP101
T03000056





000
SAUS45 KABQ 242058 COR
MTRCQC
METAR KCQC 242053Z AUTO 23006G16KT 10SM CLR 26/06 A3020 RMK AO2
SLP128 T02560056 58009





000
SAUS45 KABQ 242056 COR
MTRCQC
METAR KCQC 242053Z AUTO 23006G16KT 10SM CLR 26/06 A3020 RMK AO2
SLP128 T02560056 58009





000
SAUS45 KABQ 242055 COR
MTRCQC
METAR KCQC 242053Z AUTO 23006G16KT 10SM CLR 26/06 A3020 RMK AO2
SLP128 T02560056 58009





000
SAUS45 KABQ 242054
MTRCQC
METAR KCQC 242053Z AUTO 23006G16KT 10SM CLR 26/06 A3020 RMK AO2
SLP128 T02560056 58009





000
SAUS45 KABQ 242054
MTRTCS
METAR KTCS 242053Z AUTO 26010G18KT 10SM CLR 32/07 A3004 RMK AO2
SLP079 T03170067 58019 TSNO





000
SAUS45 KABQ 242053
MTRABQ
METAR KABQ 242052Z 26007KT 10SM SCT070 29/06 A3010 RMK AO2 SLP108
T02890061 58014





000
SAUS45 KABQ 241954
MTRTCS
METAR KTCS 241953Z AUTO VRB04KT 10SM CLR 31/07 A3007 RMK AO2 SLP088
T03060067 TSNO





000
SAUS45 KABQ 241954
MTRCQC
METAR KCQC 241953Z AUTO 22009G19KT 10SM CLR 26/05 A3022 RMK AO2
SLP130 T02610050





000
SAUS45 KABQ 241953
MTRABQ
METAR KABQ 241952Z 21006KT 10SM SCT070 28/07 A3012 RMK AO2 SLP115
T02830072





000
SAUS45 KABQ 241857 COR
MTRCQC
METAR KCQC 241853Z AUTO 23010G17KT 10SM CLR 25/07 A3023 RMK AO2
SLP136 T02500067





000
SAUS45 KABQ 241856 COR
MTRCQC
METAR KCQC 241853Z AUTO 23010G17KT 10SM CLR 25/07 A3023 RMK AO2
SLP136 T02500067





000
SAUS45 KABQ 241855 COR
MTRCQC
METAR KCQC 241853Z AUTO 23010G17KT 10SM CLR 25/07 A3023 RMK AO2
SLP136 T02500067





000
SAUS45 KABQ 241854
MTRCQC
METAR KCQC 241853Z AUTO 23010G17KT 10SM CLR 25/07 A3023 RMK AO2
SLP136 T02500067





000
SAUS45 KABQ 241854
MTRTCS
METAR KTCS 241853Z AUTO VRB06KT 10SM CLR 29/07 A3009 RMK AO2 SLP098
T02940072 TSNO





000
SAUS45 KABQ 241853
MTRABQ
METAR KABQ 241852Z 00000KT 10SM SCT070 27/08 A3014 RMK AO2 SLP119
T02720078





000
SAUS45 KABQ 241754
MTRCQC
METAR KCQC 241753Z AUTO 18006KT 10SM CLR 24/07 A3024 RMK AO2 SLP138
T02390072 10244 20117 50003





000
SAUS45 KABQ 241754
MTRTCS
METAR KTCS 241753Z AUTO 18003KT 10SM CLR 28/09 A3010 RMK AO2 SLP104
T02780094 10283 20167 58002 TSNO





000
SAUS45 KABQ 241753
MTRABQ
METAR KABQ 241752Z VRB03KT 10SM FEW070 FEW090 26/09 A3015 RMK AO2
SLP125 T02610089 10267 20150 58001





    US Dept of Commerce
    National Oceanic and Atmospheric Administration
    National Weather Service
    1325 East West Highway
    Silver Spring, MD 20910
    Page Author: NWS Internet Services Team
Disclaimer
Information Quality
Credits
Glossary
Privacy Policy
Freedom of Information Act (FOIA)
About Us
Career Opportunities